Time,TemperatureF,DewpointF,PressureIn,WindDirection,WindDirectionDegrees,WindSpeedMPH,WindSpeedGustMPH,Humidity,HourlyPrecipIn,Conditions,Clouds,dailyrainin,SoftwareType,DateUTC
2013-07-10 00:09:00,75.3,75.0,30.09,SW,217,0.0,0.0,98,0.00,,,0.00,weatherlink.com 1.10,2013-07-10 05:09:00,
2013-07-10 00:24:00,75.2,75.0,30.09,SW,216,0.0,0.0,98,0.00,,,0.00,weatherlink.com 1.10,2013-07-10 05:24:00,
2013-07-10 00:39:00,74.9,74.0,30.09,South,188,0.0,0.0,98,0.00,,,0.00,weatherlink.com 1.10,2013-07-10 05:39:00,
2013-07-10 00:54:00,74.9,74.0,30.09,South,189,0.0,0.0,98,0.00,,,0.00,weatherlink.com 1.10,2013-07-10 05:54:00,
2013-07-10 01:10:00,74.7,74.0,30.08,South,190,0.0,0.0,98,0.00,,,0.00,weatherlink.com 1.10,2013-07-10 06:10:00,
2013-07-10 01:25:00,74.4,74.0,30.08,South,190,0.0,0.0,98,0.00,,,0.00,weatherlink.com 1.10,2013-07-10 06:25:00,
2013-07-10 01:40:00,74.2,74.0,30.07,South,190,0.0,0.0,98,0.00,,,0.00,weatherlink.com 1.10,2013-07-10 06:40:00,
2013-07-10 01:55:00,73.9,73.0,30.07,South,190,0.0,0.0,98,0.00,,,0.00,weatherlink.com 1.10,2013-07-10 06:55:00,
2013-07-10 02:10:00,73.7,73.0,30.08,South,189,0.0,0.0,98,0.00,,,0.00,weatherlink.com 1.10,2013-07-10 07:10:00,
2013-07-10 02:25:00,73.5,73.0,30.08,South,190,0.0,0.0,98,0.00,,,0.00,weatherlink.com 1.10,2013-07-10 07:25:00,
2013-07-10 02:41:00,73.4,73.0,30.08,South,190,0.0,0.0,99,0.00,,,0.00,weatherlink.com 1.10,2013-07-10 07:41:00,
2013-07-10 02:55:00,73.3,73.0,30.07,South,191,0.0,0.0,99,0.00,,,0.00,weatherlink.com 1.10,2013-07-10 07:55:00,
2013-07-10 03:10:00,73.2,73.0,30.07,South,189,0.0,0.0,99,0.00,,,0.00,weatherlink.com 1.10,2013-07-10 08:10:00,
2013-07-10 03:25:00,73.0,73.0,30.06,South,190,0.0,0.0,99,0.00,,,0.00,weatherlink.com 1.10,2013-07-10 08:25:00,
2013-07-10 03:40:00,73.0,73.0,30.07,South,190,0.0,0.0,99,0.00,,,0.00,weatherlink.com 1.10,2013-07-10 08:40:00,
2013-07-10 03:55:00,72.8,73.0,30.07,South,190,0.0,0.0,99,0.00,,,0.00,weatherlink.com 1.10,2013-07-10 08:55:00,
2013-07-10 04:10:00,72.6,72.0,30.07,South,190,0.0,0.0,99,0.00,,,0.00,weatherlink.com 1.10,2013-07-10 09:10:00,
2013-07-10 04:25:00,72.4,72.0,30.07,South,190,0.0,0.0,99,0.00,,,0.00,weatherlink.com 1.10,2013-07-10 09:25:00,
2013-07-10 04:40:00,72.3,72.0,30.07,South,190,0.0,0.0,99,0.00,,,0.00,weatherlink.com 1.10,2013-07-10 09:40:00,
2013-07-10 04:55:00,72.2,72.0,30.08,South,190,0.0,0.0,99,0.00,,,0.00,weatherlink.com 1.10,2013-07-10 09:55:00,
2013-07-10 05:10:00,72.1,72.0,30.08,South,190,0.0,0.0,99,0.00,,,0.00,weatherlink.com 1.10,2013-07-10 10:10:00,
2013-07-10 05:25:00,71.9,72.0,30.08,South,190,0.0,0.0,99,0.00,,,0.00,weatherlink.com 1.10,2013-07-10 10:25:00,
2013-07-10 05:40:00,71.9,72.0,30.09,South,190,0.0,0.0,99,0.00,,,0.00,weatherlink.com 1.10,2013-07-10 10:40:00,
2013-07-10 05:55:00,71.9,72.0,30.09,South,190,0.0,0.0,99,0.00,,,0.00,weatherlink.com 1.10,2013-07-10 10:55:00,
2013-07-10 06:10:00,71.9,72.0,30.09,South,190,0.0,0.0,99,0.00,,,0.00,weatherlink.com 1.10,2013-07-10 11:10:00,
2013-07-10 06:25:00,72.3,72.0,30.09,South,190,0.0,0.0,99,0.00,,,0.00,weatherlink.com 1.10,2013-07-10 11:25:00,
2013-07-10 06:40:00,72.8,73.0,30.09,South,189,0.0,0.0,99,0.00,,,0.00,weatherlink.com 1.10,2013-07-10 11:40:00,
2013-07-10 06:55:00,73.2,73.0,30.09,South,190,0.0,0.0,99,0.00,,,0.00,weatherlink.com 1.10,2013-07-10 11:55:00,
2013-07-10 07:10:00,73.7,73.0,30.10,SSW,205,0.0,1.0,99,0.00,,,0.00,weatherlink.com 1.10,2013-07-10 12:10:00,
2013-07-10 07:25:00,74.2,74.0,30.10,WNW,289,0.0,2.0,99,0.00,,,0.00,weatherlink.com 1.10,2013-07-10 12:25:00,
2013-07-10 07:40:00,74.9,74.0,30.10,WNW,303,0.0,2.0,98,0.00,,,0.00,weatherlink.com 1.10,2013-07-10 12:40:00,
2013-07-10 07:55:00,76.2,75.0,30.10,WNW,291,2.0,4.0,96,0.00,,,0.00,weatherlink.com 1.10,2013-07-10 12:55:00,
2013-07-10 08:10:00,77.8,76.0,30.10,WNW,298,3.0,5.0,93,0.00,,,0.00,weatherlink.com 1.10,2013-07-10 13:10:00,
2013-07-10 08:25:00,79.2,77.0,30.10,WSW,243,0.0,6.0,92,0.00,,,0.00,weatherlink.com 1.10,2013-07-10 13:25:00,
2013-07-10 08:40:00,80.4,76.0,30.10,WNW,286,1.0,4.0,87,0.00,,,0.00,weatherlink.com 1.10,2013-07-10 13:40:00,
2013-07-10 08:55:00,81.3,77.0,30.09,NW,322,1.0,5.0,85,0.00,,,0.00,weatherlink.com 1.10,2013-07-10 13:55:00,
2013-07-10 09:10:00,82.6,77.0,30.09,WNW,298,2.0,4.0,84,0.00,,,0.00,weatherlink.com 1.10,2013-07-10 14:10:00,
2013-07-10 09:25:00,83.3,77.0,30.09,NW,323,2.0,8.0,82,0.00,,,0.00,weatherlink.com 1.10,2013-07-10 14:25:00,
2013-07-10 09:40:00,84.7,78.0,30.09,NE,54,3.0,5.0,81,0.00,,,0.00,weatherlink.com 1.10,2013-07-10 14:40:00,
2013-07-10 09:55:00,85.6,78.0,30.09,WNW,298,0.0,5.0,79,0.00,,,0.00,weatherlink.com 1.10,2013-07-10 14:55:00,
2013-07-10 10:11:00,87.2,79.0,30.09,NNW,340,0.0,4.0,77,0.00,,,0.00,weatherlink.com 1.10,2013-07-10 15:11:00,
2013-07-10 10:26:00,85.6,77.0,30.09,WNW,297,1.0,4.0,76,0.00,,,0.00,weatherlink.com 1.10,2013-07-10 15:26:00,
2013-07-10 10:41:00,84.6,77.0,30.09,NNW,339,0.0,4.0,79,0.00,,,0.00,weatherlink.com 1.10,2013-07-10 15:41:00,
2013-07-10 10:56:00,86.4,78.0,30.09,West,276,2.0,3.0,77,0.00,,,0.00,weatherlink.com 1.10,2013-07-10 15:56:00,
2013-07-10 11:11:00,82.4,78.0,30.09,East,84,0.0,2.0,85,0.11,,,0.11,weatherlink.com 1.10,2013-07-10 16:11:00,
2013-07-10 11:26:00,81.6,79.0,30.08,East,84,0.0,0.0,92,0.11,,,0.11,weatherlink.com 1.10,2013-07-10 16:26:00,
2013-07-10 11:41:00,82.7,79.0,30.07,East,87,2.0,3.0,89,0.11,,,0.11,weatherlink.com 1.10,2013-07-10 16:41:00,
2013-07-10 11:56:00,82.2,78.0,30.06,ENE,75,0.0,1.0,88,0.11,,,0.11,weatherlink.com 1.10,2013-07-10 16:56:00,
2013-07-10 12:11:00,82.3,80.0,30.05,ESE,111,0.0,1.0,91,0.00,,,0.11,weatherlink.com 1.10,2013-07-10 17:11:00,
2013-07-10 12:26:00,86.0,79.0,30.05,West,271,0.0,2.0,80,0.00,,,0.11,weatherlink.com 1.10,2013-07-10 17:26:00,
2013-07-10 12:41:00,87.9,80.0,30.04,North,356,0.0,2.0,78,0.00,,,0.11,weatherlink.com 1.10,2013-07-10 17:41:00,
2013-07-10 12:56:00,85.0,80.0,30.04,WNW,291,0.0,3.0,84,0.05,,,0.16,weatherlink.com 1.10,2013-07-10 17:56:00,
2013-07-10 13:11:00,85.0,80.0,30.04,WNW,284,0.0,3.0,84,0.05,,,0.16,weatherlink.com 1.10,2013-07-10 18:11:00,
2013-07-10 13:26:00,84.7,79.0,30.04,WSW,257,0.0,3.0,82,0.05,,,0.16,weatherlink.com 1.10,2013-07-10 18:26:00,
2013-07-10 13:41:00,82.8,79.0,30.02,West,280,0.0,1.0,88,0.12,,,0.23,weatherlink.com 1.10,2013-07-10 18:41:00,
2013-07-10 13:56:00,80.1,78.0,30.03,ESE,102,0.0,3.0,92,0.08,,,0.24,weatherlink.com 1.10,2013-07-10 18:56:00,
2013-07-10 14:11:00,78.3,77.0,30.06,WNW,288,1.0,4.0,94,0.09,,,0.25,weatherlink.com 1.10,2013-07-10 19:11:00,
2013-07-10 14:26:00,76.6,75.0,30.05,West,277,0.0,4.0,94,0.16,,,0.32,weatherlink.com 1.10,2013-07-10 19:26:00,
2013-07-10 14:41:00,75.1,74.0,30.02,North,4,0.0,3.0,96,0.13,,,0.36,weatherlink.com 1.10,2013-07-10 19:41:00,
2013-07-10 14:56:00,74.9,74.0,30.01,East,82,1.0,3.0,96,0.12,,,0.36,weatherlink.com 1.10,2013-07-10 19:56:00,
2013-07-10 15:11:00,74.6,74.0,30.02,South,184,0.0,1.0,97,0.11,,,0.36,weatherlink.com 1.10,2013-07-10 20:11:00,
2013-07-10 15:26:00,74.9,74.0,30.02,NNW,333,1.0,2.0,96,0.03,,,0.36,weatherlink.com 1.10,2013-07-10 20:26:00,
2013-07-10 15:41:00,75.4,74.0,30.02,WNW,283,0.0,2.0,95,0.02,,,0.38,weatherlink.com 1.10,2013-07-10 20:41:00,
2013-07-10 15:56:00,76.4,74.0,30.03,NNW,347,0.0,2.0,93,0.02,,,0.38,weatherlink.com 1.10,2013-07-10 20:56:00,
2013-07-10 16:11:00,76.6,75.0,30.02,West,266,1.0,5.0,94,0.02,,,0.38,weatherlink.com 1.10,2013-07-10 21:11:00,
2013-07-10 16:26:00,76.8,75.0,30.03,WNW,283,1.0,5.0,95,0.02,,,0.38,weatherlink.com 1.10,2013-07-10 21:26:00,
2013-07-10 16:41:00,77.3,76.0,30.03,WNW,300,1.0,4.0,95,0.00,,,0.38,weatherlink.com 1.10,2013-07-10 21:41:00,
2013-07-10 16:56:00,77.4,76.0,30.03,NNE,32,0.0,1.0,94,0.00,,,0.38,weatherlink.com 1.10,2013-07-10 21:56:00,
2013-07-10 17:11:00,77.3,76.0,30.02,WSW,240,1.0,2.0,94,0.00,,,0.38,weatherlink.com 1.10,2013-07-10 22:11:00,
2013-07-10 17:26:00,77.1,76.0,30.02,WNW,303,0.0,1.0,95,0.00,,,0.38,weatherlink.com 1.10,2013-07-10 22:26:00,
2013-07-10 17:41:00,76.9,75.0,30.03,WNW,290,0.0,1.0,95,0.00,,,0.38,weatherlink.com 1.10,2013-07-10 22:41:00,
2013-07-10 17:56:00,77.0,76.0,30.03,WNW,290,0.0,0.0,96,0.00,,,0.38,weatherlink.com 1.10,2013-07-10 22:56:00,
2013-07-10 18:11:00,76.9,76.0,30.02,WNW,290,0.0,1.0,96,0.00,,,0.38,weatherlink.com 1.10,2013-07-10 23:11:00,
2013-07-10 18:26:00,76.9,76.0,30.03,WNW,290,0.0,1.0,96,0.00,,,0.38,weatherlink.com 1.10,2013-07-10 23:26:00,
2013-07-10 18:41:00,76.8,76.0,30.02,WNW,290,0.0,1.0,96,0.00,,,0.38,weatherlink.com 1.10,2013-07-10 23:41:00,
2013-07-10 18:56:00,76.5,75.0,30.01,East,100,3.0,3.0,96,0.00,,,0.38,weatherlink.com 1.10,2013-07-10 23:56:00,
2013-07-10 19:11:00,76.1,75.0,30.01,East,89,3.0,3.0,96,0.00,,,0.38,weatherlink.com 1.10,2013-07-11 00:11:00,
2013-07-10 19:26:00,75.9,75.0,30.00,East,98,3.0,4.0,97,0.00,,,0.38,weatherlink.com 1.10,2013-07-11 00:26:00,
2013-07-10 19:41:00,75.8,75.0,30.01,WSW,245,1.0,1.0,97,0.00,,,0.38,weatherlink.com 1.10,2013-07-11 00:41:00,
2013-07-10 19:56:00,75.6,75.0,30.00,South,186,0.0,0.0,97,0.00,,,0.38,weatherlink.com 1.10,2013-07-11 00:56:00,
2013-07-10 20:11:00,75.4,75.0,29.99,South,187,0.0,0.0,98,0.00,,,0.38,weatherlink.com 1.10,2013-07-11 01:11:00,
2013-07-10 20:26:00,75.1,75.0,29.98,South,186,0.0,0.0,98,0.00,,,0.38,weatherlink.com 1.10,2013-07-11 01:26:00,
2013-07-10 20:41:00,74.9,74.0,29.98,South,187,0.0,1.0,98,0.01,,,0.39,weatherlink.com 1.10,2013-07-11 01:41:00,
2013-07-10 20:56:00,74.9,74.0,29.98,SSW,198,0.0,1.0,98,0.01,,,0.39,weatherlink.com 1.10,2013-07-11 01:56:00,
2013-07-10 21:11:00,74.8,74.0,29.98,SSW,198,0.0,0.0,98,0.01,,,0.39,weatherlink.com 1.10,2013-07-11 02:11:00,
2013-07-10 21:26:00,74.7,74.0,29.97,SSW,198,0.0,0.0,98,0.01,,,0.39,weatherlink.com 1.10,2013-07-11 02:26:00,
2013-07-10 21:41:00,74.5,74.0,29.97,SSW,198,0.0,0.0,98,0.00,,,0.39,weatherlink.com 1.10,2013-07-11 02:41:00,
2013-07-10 21:56:00,74.5,74.0,29.97,SSW,198,0.0,0.0,99,0.00,,,0.39,weatherlink.com 1.10,2013-07-11 02:56:00,
2013-07-10 22:11:00,74.5,74.0,29.96,SE,134,0.0,1.0,99,0.00,,,0.39,weatherlink.com 1.10,2013-07-11 03:11:00,
2013-07-10 22:26:00,74.5,74.0,29.96,SE,132,0.0,1.0,99,0.00,,,0.39,weatherlink.com 1.10,2013-07-11 03:26:00,
2013-07-10 22:41:00,74.5,74.0,29.97,SSE,156,0.0,1.0,99,0.00,,,0.39,weatherlink.com 1.10,2013-07-11 03:41:00,
2013-07-10 22:56:00,74.4,74.0,29.98,SSW,207,0.0,3.0,99,0.00,,,0.39,weatherlink.com 1.10,2013-07-11 03:56:00,
2013-07-10 23:11:00,74.4,74.0,29.99,East,89,0.0,1.0,99,0.00,,,0.39,weatherlink.com 1.10,2013-07-11 04:11:00,
2013-07-10 23:26:00,74.4,74.0,29.99,NNW,330,0.0,0.0,99,0.00,,,0.39,weatherlink.com 1.10,2013-07-11 04:26:00,
2013-07-10 23:41:00,74.5,74.0,30.00,NNW,330,0.0,0.0,99,0.00,,,0.39,weatherlink.com 1.10,2013-07-11 04:41:00,
2013-07-10 23:56:00,74.4,74.0,30.00,NNW,330,0.0,1.0,99,0.00,,,0.39,weatherlink.com 1.10,2013-07-11 04:56:00,